sensor_id;sensor_type;location;lat;lon;timestamp;pressure;altitude;pressure_sealevel;temperature;humidity
11314;BME280;5712;48.858;9.206;2024-03-23T00:52:37;97421.97;;;8.64;100.00
11314;BME280;5712;48.858;9.206;2024-03-23T00:55:04;97422.84;;;8.65;100.00
11314;BME280;5712;48.858;9.206;2024-03-23T00:57:29;97422.84;;;8.65;100.00
11314;BME280;5712;48.858;9.206;2024-03-23T00:59:56;97418.41;;;8.65;100.00
11314;BME280;5712;48.858;9.206;2024-03-23T01:02:21;97402.81;;;8.62;100.00
11314;BME280;5712;48.858;9.206;2024-03-23T01:04:48;97405.09;;;8.67;100.00
11314;BME280;5712;48.858;9.206;2024-03-23T01:07:13;97405.97;;;8.67;100.00
11314;BME280;5712;48.858;9.206;2024-03-23T01:09:41;97402.78;;;8.75;100.00
11314;BME280;5712;48.858;9.206;2024-03-23T01:12:07;97395.16;;;8.83;100.00
11314;BME280;5712;48.858;9.206;2024-03-23T01:14:33;97391.00;;;8.91;100.00
11314;BME280;5712;48.858;9.206;2024-03-23T01:16:59;97383.13;;;9.02;100.00
11314;BME280;5712;48.858;9.206;2024-03-23T01:19:25;97391.25;;;8.99;100.00
11314;BME280;5712;48.858;9.206;2024-03-23T01:21:51;97362.66;;;9.06;100.00
11314;BME280;5712;48.858;9.206;2024-03-23T01:24:17;97359.63;;;8.99;100.00
11314;BME280;5712;48.858;9.206;2024-03-23T01:26:44;97361.41;;;8.88;100.00
11314;BME280;5712;48.858;9.206;2024-03-23T01:29:10;97371.16;;;8.75;100.00
11314;BME280;5712;48.858;9.206;2024-03-23T01:31:36;97368.22;;;8.67;100.00
11314;BME280;5712;48.858;9.206;2024-03-23T01:34:03;97366.34;;;8.69;100.00
11314;BME280;5712;48.858;9.206;2024-03-23T01:36:28;97364.31;;;8.72;100.00
11314;BME280;5712;48.858;9.206;2024-03-23T01:38:55;97362.50;;;8.73;100.00
11314;BME280;5712;48.858;9.206;2024-03-23T01:41:20;97344.59;;;8.78;100.00
11314;BME280;5712;48.858;9.206;2024-03-23T01:43:48;97346.25;;;8.79;100.00
11314;BME280;5712;48.858;9.206;2024-03-23T01:46:13;97350.84;;;8.88;100.00
11314;BME280;5712;48.858;9.206;2024-03-23T01:48:40;97332.31;;;9.00;100.00
11314;BME280;5712;48.858;9.206;2024-03-23T01:51:06;97312.13;;;9.23;100.00
11314;BME280;5712;48.858;9.206;2024-03-23T01:53:33;97295.84;;;9.62;100.00
11314;BME280;5712;48.858;9.206;2024-03-23T01:55:58;97286.47;;;9.80;100.00
11314;BME280;5712;48.858;9.206;2024-03-23T01:58:25;97268.69;;;9.93;99.18
11314;BME280;5712;48.858;9.206;2024-03-23T02:00:52;97266.78;;;10.06;98.07
11314;BME280;5712;48.858;9.206;2024-03-23T02:03:25;97250.91;;;10.17;96.46
11314;BME280;5712;48.858;9.206;2024-03-23T02:05:51;97245.13;;;10.23;96.24
11314;BME280;5712;48.858;9.206;2024-03-23T02:08:20;97259.91;;;10.25;95.62
11314;BME280;5712;48.858;9.206;2024-03-23T02:10:46;97252.16;;;10.33;95.14
11314;BME280;5712;48.858;9.206;2024-03-23T02:13:14;97245.56;;;10.39;94.47
11314;BME280;5712;48.858;9.206;2024-03-23T02:15:40;97248.91;;;10.41;94.22
11314;BME280;5712;48.858;9.206;2024-03-23T02:18:08;97234.50;;;10.45;93.50
11314;BME280;5712;48.858;9.206;2024-03-23T02:20:34;97240.69;;;10.55;93.07
11314;BME280;5712;48.858;9.206;2024-03-23T02:23:02;97243.78;;;10.60;92.50
11314;BME280;5712;48.858;9.206;2024-03-23T02:25:27;97231.53;;;10.59;92.28
11314;BME280;5712;48.858;9.206;2024-03-23T02:27:54;97229.88;;;10.58;91.94
11314;BME280;5712;48.858;9.206;2024-03-23T02:30:20;97226.94;;;10.61;91.32
11314;BME280;5712;48.858;9.206;2024-03-23T02:32:46;97220.47;;;10.65;91.37
11314;BME280;5712;48.858;9.206;2024-03-23T02:35:12;97233.91;;;10.62;92.04
11314;BME280;5712;48.858;9.206;2024-03-23T02:37:39;97228.84;;;10.70;91.36
11314;BME280;5712;48.858;9.206;2024-03-23T02:40:06;97226.44;;;10.87;90.18
11314;BME280;5712;48.858;9.206;2024-03-23T02:42:33;97213.34;;;10.86;90.01
11314;BME280;5712;48.858;9.206;2024-03-23T02:44:59;97215.53;;;10.81;89.84
11314;BME280;5712;48.858;9.206;2024-03-23T02:47:25;97214.25;;;10.75;90.65
11314;BME280;5712;48.858;9.206;2024-03-23T02:49:51;97213.88;;;10.80;90.25
11314;BME280;5712;48.858;9.206;2024-03-23T02:52:17;97215.28;;;10.84;90.24
11314;BME280;5712;48.858;9.206;2024-03-23T02:54:43;97203.06;;;10.83;90.13
11314;BME280;5712;48.858;9.206;2024-03-23T02:57:11;97206.91;;;10.79;90.28
11314;BME280;5712;48.858;9.206;2024-03-23T02:59:37;97208.06;;;10.86;90.31
11314;BME280;5712;48.858;9.206;2024-03-23T03:02:04;97210.00;;;10.84;90.49
11314;BME280;5712;48.858;9.206;2024-03-23T03:04:30;97210.00;;;10.84;90.92
11314;BME280;5712;48.858;9.206;2024-03-23T03:06:56;97211.69;;;10.85;90.64
11314;BME280;5712;48.858;9.206;2024-03-23T03:09:22;97211.94;;;10.82;91.12
11314;BME280;5712;48.858;9.206;2024-03-23T03:11:48;97209.69;;;10.77;91.66
11314;BME280;5712;48.858;9.206;2024-03-23T03:14:15;97218.28;;;10.70;92.32
11314;BME280;5712;48.858;9.206;2024-03-23T03:16:42;97201.50;;;10.60;93.66
11314;BME280;5712;48.858;9.206;2024-03-23T03:19:07;97214.94;;;10.57;94.29
11314;BME280;5712;48.858;9.206;2024-03-23T03:21:35;97209.25;;;10.52;94.47
11314;BME280;5712;48.858;9.206;2024-03-23T03:24:01;97205.56;;;10.43;94.80
11314;BME280;5712;48.858;9.206;2024-03-23T03:26:27;97223.00;;;10.35;96.07
11314;BME280;5712;48.858;9.206;2024-03-23T03:28:53;97215.13;;;10.24;96.73
11314;BME280;5712;48.858;9.206;2024-03-23T03:31:21;97212.78;;;10.10;98.18
11314;BME280;5712;48.858;9.206;2024-03-23T03:33:46;97207.38;;;10.00;99.55
11314;BME280;5712;48.858;9.206;2024-03-23T03:36:13;97218.44;;;9.94;100.00
11314;BME280;5712;48.858;9.206;2024-03-23T03:38:38;97216.78;;;9.93;100.00
11314;BME280;5712;48.858;9.206;2024-03-23T03:41:05;97221.81;;;9.85;100.00
11314;BME280;5712;48.858;9.206;2024-03-23T03:43:31;97223.13;;;9.91;100.00
11314;BME280;5712;48.858;9.206;2024-03-23T03:45:59;97227.19;;;9.95;100.00
11314;BME280;5712;48.858;9.206;2024-03-23T03:48:26;97217.34;;;9.97;100.00
11314;BME280;5712;48.858;9.206;2024-03-23T03:50:53;97202.94;;;10.01;100.00
11314;BME280;5712;48.858;9.206;2024-03-23T03:53:18;97194.03;;;10.02;100.00
11314;BME280;5712;48.858;9.206;2024-03-23T03:55:45;97181.50;;;9.94;100.00
11314;BME280;5712;48.858;9.206;2024-03-23T03:58:11;97173.19;;;9.99;100.00
11314;BME280;5712;48.858;9.206;2024-03-23T04:00:37;97162.16;;;10.05;100.00
11314;BME280;5712;48.858;9.206;2024-03-23T04:03:03;97155.53;;;10.10;100.00
11314;BME280;5712;48.858;9.206;2024-03-23T04:05:31;97157.03;;;10.24;100.00
11314;BME280;5712;48.858;9.206;2024-03-23T04:07:56;97151.50;;;10.27;100.00
11314;BME280;5712;48.858;9.206;2024-03-23T04:10:23;97144.09;;;10.21;100.00
11314;BME280;5712;48.858;9.206;2024-03-23T04:12:48;97138.53;;;10.24;100.00
11314;BME280;5712;48.858;9.206;2024-03-23T04:15:15;97130.09;;;10.30;100.00
11314;BME280;5712;48.858;9.206;2024-03-23T04:17:41;97128.91;;;10.34;100.00
11314;BME280;5712;48.858;9.206;2024-03-23T04:20:08;97124.88;;;10.39;100.00
11314;BME280;5712;48.858;9.206;2024-03-23T04:22:37;97134.53;;;10.50;100.00
11314;BME280;5712;48.858;9.206;2024-03-23T04:25:05;97138.63;;;10.54;100.00
11314;BME280;5712;48.858;9.206;2024-03-23T04:27:32;97162.13;;;10.57;100.00
11314;BME280;5712;48.858;9.206;2024-03-23T04:29:58;97194.28;;;10.62;99.42
11314;BME280;5712;48.858;9.206;2024-03-23T04:32:26;97223.94;;;10.45;100.00
11314;BME280;5712;48.858;9.206;2024-03-23T04:34:54;97240.34;;;10.17;100.00
11314;BME280;5712;48.858;9.206;2024-03-23T04:37:20;97249.88;;;9.86;100.00
11314;BME280;5712;48.858;9.206;2024-03-23T04:39:48;97241.53;;;9.70;100.00
11314;BME280;5712;48.858;9.206;2024-03-23T04:42:15;97248.09;;;9.65;100.00
11314;BME280;5712;48.858;9.206;2024-03-23T04:44:41;97227.97;;;9.64;100.00
11314;BME280;5712;48.858;9.206;2024-03-23T04:47:08;97233.63;;;9.59;100.00
11314;BME280;5712;48.858;9.206;2024-03-23T04:49:35;97241.63;;;9.58;100.00
11314;BME280;5712;48.858;9.206;2024-03-23T04:52:04;97215.50;;;9.66;100.00
11314;BME280;5712;48.858;9.206;2024-03-23T04:54:31;97226.06;;;9.66;100.00
11314;BME280;5712;48.858;9.206;2024-03-23T04:57:00;97229.16;;;9.71;100.00
11314;BME280;5712;48.858;9.206;2024-03-23T04:59:25;97231.78;;;9.71;100.00
11314;BME280;5712;48.858;9.206;2024-03-23T05:01:52;97233.50;;;9.72;100.00
11314;BME280;5712;48.858;9.206;2024-03-23T05:04:17;97229.63;;;9.76;100.00
11314;BME280;5712;48.858;9.206;2024-03-23T05:06:44;97229.63;;;9.76;100.00
11314;BME280;5712;48.858;9.206;2024-03-23T05:09:09;97232.25;;;9.76;100.00
11314;BME280;5712;48.858;9.206;2024-03-23T05:11:37;97230.59;;;9.75;100.00
11314;BME280;5712;48.858;9.206;2024-03-23T05:14:04;97242.34;;;9.71;100.00
11314;BME280;5712;48.858;9.206;2024-03-23T05:16:30;97241.41;;;9.72;100.00
11314;BME280;5712;48.858;9.206;2024-03-23T05:18:56;97242.72;;;9.66;100.00
11314;BME280;5712;48.858;9.206;2024-03-23T05:21:22;97249.31;;;9.61;100.00
11314;BME280;5712;48.858;9.206;2024-03-23T05:23:48;97247.66;;;9.60;100.00
11314;BME280;5712;48.858;9.206;2024-03-23T05:26:14;97250.78;;;9.54;100.00
11314;BME280;5712;48.858;9.206;2024-03-23T05:28:40;97255.19;;;9.53;100.00
11314;BME280;5712;48.858;9.206;2024-03-23T05:31:08;97263.22;;;9.52;100.00
11314;BME280;5712;48.858;9.206;2024-03-23T05:33:34;97252.66;;;9.52;100.00
11314;BME280;5712;48.858;9.206;2024-03-23T05:36:01;97263.38;;;9.50;100.00
11314;BME280;5712;48.858;9.206;2024-03-23T05:38:28;97257.34;;;9.48;100.00
11314;BME280;5712;48.858;9.206;2024-03-23T05:40:54;97257.84;;;9.42;100.00
11314;BME280;5712;48.858;9.206;2024-03-23T05:43:20;97265.53;;;9.45;100.00
11314;BME280;5712;48.858;9.206;2024-03-23T05:45:53;97261.69;;;9.38;100.00
11314;BME280;5712;48.858;9.206;2024-03-23T05:48:20;97280.63;;;9.32;100.00
11314;BME280;5712;48.858;9.206;2024-03-23T05:50:46;97284.91;;;9.22;100.00
11314;BME280;5712;48.858;9.206;2024-03-23T05:53:12;97284.78;;;9.13;100.00
11314;BME280;5712;48.858;9.206;2024-03-23T05:55:39;97290.03;;;9.02;100.00
11314;BME280;5712;48.858;9.206;2024-03-23T05:58:04;97287.75;;;8.97;100.00
11314;BME280;5712;48.858;9.206;2024-03-23T06:00:31;97290.75;;;8.93;100.00
11314;BME280;5712;48.858;9.206;2024-03-23T06:02:56;97280.31;;;8.91;100.00
11314;BME280;5712;48.858;9.206;2024-03-23T06:05:24;97294.09;;;8.95;100.00
11314;BME280;5712;48.858;9.206;2024-03-23T06:07:50;97303.06;;;8.92;100.00
11314;BME280;5712;48.858;9.206;2024-03-23T06:10:16;97304.75;;;8.93;100.00
11314;BME280;5712;48.858;9.206;2024-03-23T06:12:42;97301.41;;;8.91;100.00
11314;BME280;5712;48.858;9.206;2024-03-23T06:15:09;97310.97;;;8.92;100.00
11314;BME280;5712;48.858;9.206;2024-03-23T06:17:35;97309.41;;;8.90;100.00
11314;BME280;5712;48.858;9.206;2024-03-23T06:20:03;97322.84;;;8.87;100.00
11314;BME280;5712;48.858;9.206;2024-03-23T06:22:30;97324.84;;;8.83;100.00
11314;BME280;5712;48.858;9.206;2024-03-23T06:24:57;97323.03;;;8.84;100.00
11314;BME280;5712;48.858;9.206;2024-03-23T06:27:22;97314.44;;;8.82;100.00
11314;BME280;5712;48.858;9.206;2024-03-23T06:29:49;97319.59;;;8.83;100.00
11314;BME280;5712;48.858;9.206;2024-03-23T06:32:14;97331.91;;;8.83;100.00
11314;BME280;5712;48.858;9.206;2024-03-23T06:34:41;97343.16;;;8.85;100.00
11314;BME280;5712;48.858;9.206;2024-03-23T06:37:07;97357.91;;;8.87;100.00
11314;BME280;5712;48.858;9.206;2024-03-23T06:39:36;97366.88;;;8.85;100.00
11314;BME280;5712;48.858;9.206;2024-03-23T06:42:02;97381.97;;;8.83;100.00
11314;BME280;5712;48.858;9.206;2024-03-23T06:44:28;97393.47;;;8.82;100.00
11314;BME280;5712;48.858;9.206;2024-03-23T06:46:55;97378.72;;;8.79;100.00
11314;BME280;5712;48.858;9.206;2024-03-23T06:49:22;97391.38;;;8.74;100.00
11314;BME280;5712;48.858;9.206;2024-03-23T06:51:48;97399.28;;;8.74;100.00
11314;BME280;5712;48.858;9.206;2024-03-23T06:54:14;97404.47;;;8.76;100.00
11314;BME280;5712;48.858;9.206;2024-03-23T06:56:41;97400.84;;;8.77;100.00
11314;BME280;5712;48.858;9.206;2024-03-23T06:59:08;97406.84;;;8.79;100.00
11314;BME280;5712;48.858;9.206;2024-03-23T07:01:33;97407.81;;;8.78;100.00
11314;BME280;5712;48.858;9.206;2024-03-23T07:04:00;97423.00;;;8.74;100.00
11314;BME280;5712;48.858;9.206;2024-03-23T07:06:26;97421.66;;;8.69;100.00
11314;BME280;5712;48.858;9.206;2024-03-23T07:08:52;97430.38;;;8.69;100.00
11314;BME280;5712;48.858;9.206;2024-03-23T07:11:18;97439.41;;;8.78;100.00
11314;BME280;5712;48.858;9.206;2024-03-23T07:13:49;97442.56;;;8.83;100.00
11314;BME280;5712;48.858;9.206;2024-03-23T07:16:15;97450.03;;;8.89;100.00
11314;BME280;5712;48.858;9.206;2024-03-23T07:18:42;97448.50;;;8.97;100.00
11314;BME280;5712;48.858;9.206;2024-03-23T07:21:08;97453.69;;;8.99;100.00
11314;BME280;5712;48.858;9.206;2024-03-23T07:23:34;97450.34;;;9.08;100.00
11314;BME280;5712;48.858;9.206;2024-03-23T07:26:01;97460.84;;;9.20;100.00
11314;BME280;5712;48.858;9.206;2024-03-23T07:28:28;97463.03;;;9.26;100.00
11314;BME280;5712;48.858;9.206;2024-03-23T07:31:03;97458.13;;;9.33;100.00
11314;BME280;5712;48.858;9.206;2024-03-23T07:33:30;97468.66;;;9.33;100.00
11314;BME280;5712;48.858;9.206;2024-03-23T07:35:56;97470.34;;;9.34;100.00
11314;BME280;5712;48.858;9.206;2024-03-23T07:38:24;97468.06;;;9.29;100.00
11314;BME280;5712;48.858;9.206;2024-03-23T07:40:49;97471.25;;;9.22;100.00
11314;BME280;5712;48.858;9.206;2024-03-23T07:43:20;97487.31;;;9.19;100.00
11314;BME280;5712;48.858;9.206;2024-03-23T07:45:51;97497.84;;;9.19;100.00
11314;BME280;5712;48.858;9.206;2024-03-23T07:48:21;97499.03;;;9.15;100.00
11314;BME280;5712;48.858;9.206;2024-03-23T07:50:56;97507.78;;;9.15;100.00
11314;BME280;5712;48.858;9.206;2024-03-23T07:53:22;97515.00;;;9.01;100.00
11314;BME280;5712;48.858;9.206;2024-03-23T07:55:53;97520.06;;;9.04;100.00
11314;BME280;5712;48.858;9.206;2024-03-23T07:58:20;97535.25;;;9.00;100.00
11314;BME280;5712;48.858;9.206;2024-03-23T08:00:46;97542.78;;;8.94;100.00
11314;BME280;5712;48.858;9.206;2024-03-23T08:03:12;97557.66;;;8.82;100.00
11314;BME280;5712;48.858;9.206;2024-03-23T08:05:39;97546.72;;;8.63;100.00
11314;BME280;5712;48.858;9.206;2024-03-23T08:08:06;97533.28;;;8.43;100.00
11314;BME280;5712;48.858;9.206;2024-03-23T08:10:31;97532.25;;;8.33;100.00
11314;BME280;5712;48.858;9.206;2024-03-23T08:12:58;97545.94;;;8.38;100.00
11314;BME280;5712;48.858;9.206;2024-03-23T08:15:23;97563.63;;;8.48;100.00
11314;BME280;5712;48.858;9.206;2024-03-23T08:17:50;97560.03;;;8.49;100.00
11314;BME280;5712;48.858;9.206;2024-03-23T08:20:16;97574.16;;;8.48;100.00
11314;BME280;5712;48.858;9.206;2024-03-23T08:22:43;97584.25;;;8.42;100.00
11314;BME280;5712;48.858;9.206;2024-03-23T08:25:09;97586.78;;;8.31;100.00
11314;BME280;5712;48.858;9.206;2024-03-23T08:27:35;97589.34;;;8.20;100.00
11314;BME280;5712;48.858;9.206;2024-03-23T08:30:01;97581.47;;;8.06;100.00
11314;BME280;5712;48.858;9.206;2024-03-23T08:32:27;97584.75;;;7.97;100.00
11314;BME280;5712;48.858;9.206;2024-03-23T08:34:53;97599.44;;;7.87;100.00
11314;BME280;5712;48.858;9.206;2024-03-23T08:37:20;97628.41;;;7.87;100.00
11314;BME280;5712;48.858;9.206;2024-03-23T08:39:47;97636.34;;;8.12;100.00
11314;BME280;5712;48.858;9.206;2024-03-23T08:42:14;97648.50;;;8.39;100.00
11314;BME280;5712;48.858;9.206;2024-03-23T08:44:39;97655.28;;;8.56;100.00
11314;BME280;5712;48.858;9.206;2024-03-23T08:47:08;97665.16;;;8.65;100.00
11314;BME280;5712;48.858;9.206;2024-03-23T08:49:33;97653.34;;;8.70;100.00
11314;BME280;5712;48.858;9.206;2024-03-23T08:52:00;97645.56;;;8.81;100.00
11314;BME280;5712;48.858;9.206;2024-03-23T08:54:26;97628.91;;;8.81;100.00
11314;BME280;5712;48.858;9.206;2024-03-23T08:56:55;97621.75;;;8.83;100.00
11314;BME280;5712;48.858;9.206;2024-03-23T08:59:21;97620.69;;;8.73;100.00
11314;BME280;5712;48.858;9.206;2024-03-23T09:01:49;97642.81;;;8.70;100.00
11314;BME280;5712;48.858;9.206;2024-03-23T09:04:14;97641.13;;;8.69;100.00
11314;BME280;5712;48.858;9.206;2024-03-23T09:06:42;97646.50;;;8.68;100.00
11314;BME280;5712;48.858;9.206;2024-03-23T09:09:07;97661.78;;;8.75;100.00
11314;BME280;5712;48.858;9.206;2024-03-23T09:11:34;97689.16;;;8.98;100.00
11314;BME280;5712;48.858;9.206;2024-03-23T09:14:01;97686.19;;;9.15;100.00
11314;BME280;5712;48.858;9.206;2024-03-23T09:16:28;97678.19;;;9.04;100.00
11314;BME280;5712;48.858;9.206;2024-03-23T09:18:53;97707.09;;;9.18;100.00
11314;BME280;5712;48.858;9.206;2024-03-23T09:21:20;97704.09;;;9.35;100.00
11314;BME280;5712;48.858;9.206;2024-03-23T09:23:46;97684.25;;;9.42;98.83
11314;BME280;5712;48.858;9.206;2024-03-23T09:26:12;97654.94;;;9.34;90.73
11314;BME280;5712;48.858;9.206;2024-03-23T09:28:39;97637.59;;;9.19;87.90
11314;BME280;5712;48.858;9.206;2024-03-23T09:31:07;97664.91;;;9.18;92.16
11314;BME280;5712;48.858;9.206;2024-03-23T09:33:34;97681.56;;;9.18;92.20
11314;BME280;5712;48.858;9.206;2024-03-23T09:36:03;97675.44;;;9.18;90.33
11314;BME280;5712;48.858;9.206;2024-03-23T09:38:30;97662.19;;;9.07;88.12
11314;BME280;5712;48.858;9.206;2024-03-23T09:40:56;97654.09;;;8.97;87.00
11314;BME280;5712;48.858;9.206;2024-03-23T09:43:23;97684.97;;;8.95;90.33
11314;BME280;5712;48.858;9.206;2024-03-23T09:45:49;97663.03;;;8.95;89.49
11314;BME280;5712;48.858;9.206;2024-03-23T09:48:17;97653.78;;;8.89;88.77
11314;BME280;5712;48.858;9.206;2024-03-23T09:50:45;97650.28;;;8.89;87.86
11314;BME280;5712;48.858;9.206;2024-03-23T09:53:13;97645.13;;;9.00;88.04
11314;BME280;5712;48.858;9.206;2024-03-23T09:55:39;97615.78;;;9.04;83.20
11314;BME280;5712;48.858;9.206;2024-03-23T09:58:06;97631.41;;;8.95;84.75
11314;BME280;5712;48.858;9.206;2024-03-23T10:00:32;97623.66;;;8.81;82.35
11314;BME280;5712;48.858;9.206;2024-03-23T10:03:00;97626.38;;;8.79;82.10
11314;BME280;5712;48.858;9.206;2024-03-23T10:05:29;97638.78;;;8.90;82.71
11314;BME280;5712;48.858;9.206;2024-03-23T10:07:56;97663.34;;;9.03;86.17
11314;BME280;5712;48.858;9.206;2024-03-23T10:10:24;97667.41;;;9.19;87.77
11314;BME280;5712;48.858;9.206;2024-03-23T10:12:51;97670.75;;;9.34;89.38
11314;BME280;5712;48.858;9.206;2024-03-23T10:15:19;97633.84;;;9.34;84.05
11314;BME280;5712;48.858;9.206;2024-03-23T10:17:46;97599.84;;;9.42;78.68
11314;BME280;5712;48.858;9.206;2024-03-23T10:20:11;97597.78;;;9.34;76.09
11314;BME280;5712;48.858;9.206;2024-03-23T10:22:39;97602.59;;;9.40;75.74
11314;BME280;5712;48.858;9.206;2024-03-23T10:25:09;97593.13;;;9.38;75.48
11314;BME280;5712;48.858;9.206;2024-03-23T10:27:35;97610.16;;;9.21;77.24
11314;BME280;5712;48.858;9.206;2024-03-23T10:30:08;97614.50;;;9.10;77.52
11314;BME280;5712;48.858;9.206;2024-03-23T10:32:35;97621.78;;;9.19;78.28
11314;BME280;5712;48.858;9.206;2024-03-23T10:35:14;97629.53;;;9.33;79.37
11314;BME280;5712;48.858;9.206;2024-03-23T10:37:42;97637.84;;;9.39;80.25
11314;BME280;5712;48.858;9.206;2024-03-23T10:40:10;97620.28;;;9.51;77.78
11314;BME280;5712;48.858;9.206;2024-03-23T10:42:39;97602.50;;;9.42;75.62
11314;BME280;5712;48.858;9.206;2024-03-23T10:45:06;97591.09;;;9.41;73.69
11314;BME280;5712;48.858;9.206;2024-03-23T10:47:34;97594.00;;;9.26;72.41
11314;BME280;5712;48.858;9.206;2024-03-23T10:50:01;97645.13;;;9.00;76.68
11314;BME280;5712;48.858;9.206;2024-03-23T10:52:27;97738.16;;;8.11;88.02
11314;BME280;5712;48.858;9.206;2024-03-23T10:54:55;97783.72;;;7.31;95.64
11314;BME280;5712;48.858;9.206;2024-03-23T10:57:26;97797.75;;;6.74;100.00
11314;BME280;5712;48.858;9.206;2024-03-23T10:59:55;97815.09;;;6.47;100.00
11314;BME280;5712;48.858;9.206;2024-03-23T11:02:22;97831.97;;;6.43;100.00
11314;BME280;5712;48.858;9.206;2024-03-23T11:04:48;97830.22;;;6.28;100.00
11314;BME280;5712;48.858;9.206;2024-03-23T11:07:30;97839.28;;;6.23;100.00
11314;BME280;5712;48.858;9.206;2024-03-23T11:09:58;97846.31;;;6.22;100.00
11314;BME280;5712;48.858;9.206;2024-03-23T11:12:28;97830.91;;;6.16;100.00
11314;BME280;5712;48.858;9.206;2024-03-23T11:14:58;97795.28;;;6.28;100.00
11314;BME280;5712;48.858;9.206;2024-03-23T11:17:26;97781.84;;;6.48;100.00
11314;BME280;5712;48.858;9.206;2024-03-23T11:19:56;97786.09;;;6.78;100.00
11314;BME280;5712;48.858;9.206;2024-03-23T11:22:38;97777.13;;;6.96;100.00
11314;BME280;5712;48.858;9.206;2024-03-23T11:25:15;97783.34;;;7.23;100.00
11314;BME280;5712;48.858;9.206;2024-03-23T11:27:43;97780.31;;;7.43;100.00
11314;BME280;5712;48.858;9.206;2024-03-23T11:30:13;97780.09;;;7.74;100.00
11314;BME280;5712;48.858;9.206;2024-03-23T11:32:40;97780.81;;;7.90;100.00
11314;BME280;5712;48.858;9.206;2024-03-23T11:35:07;97781.09;;;8.12;100.00
11314;BME280;5712;48.858;9.206;2024-03-23T11:37:35;97785.41;;;8.27;100.00
11314;BME280;5712;48.858;9.206;2024-03-23T11:40:01;97791.81;;;8.23;100.00
11314;BME280;5712;48.858;9.206;2024-03-23T11:42:29;97786.19;;;8.41;100.00
11314;BME280;5712;48.858;9.206;2024-03-23T11:44:55;97781.88;;;8.53;100.00
11314;BME280;5712;48.858;9.206;2024-03-23T11:47:21;97772.84;;;8.57;100.00
11314;BME280;5712;48.858;9.206;2024-03-23T11:49:48;97762.50;;;8.54;100.00
11314;BME280;5712;48.858;9.206;2024-03-23T11:52:15;97746.50;;;8.57;100.00
11314;BME280;5712;48.858;9.206;2024-03-23T11:54:41;97745.28;;;8.36;100.00
11314;BME280;5712;48.858;9.206;2024-03-23T11:57:08;97747.75;;;8.39;100.00
11314;BME280;5712;48.858;9.206;2024-03-23T11:59:36;97747.34;;;8.45;100.00
11314;BME280;5712;48.858;9.206;2024-03-23T12:02:06;97732.81;;;8.52;100.00
11314;BME280;5712;48.858;9.206;2024-03-23T12:04:32;97729.22;;;8.53;100.00
11314;BME280;5712;48.858;9.206;2024-03-23T12:07:14;97718.91;;;8.50;100.00
11314;BME280;5712;48.858;9.206;2024-03-23T12:09:41;97732.38;;;8.58;100.00
11314;BME280;5712;48.858;9.206;2024-03-23T12:12:10;97726.91;;;8.61;100.00
11314;BME280;5712;48.858;9.206;2024-03-23T12:14:37;97722.50;;;8.61;100.00
11314;BME280;5712;48.858;9.206;2024-03-23T12:17:09;97697.94;;;8.61;100.00
11314;BME280;5712;48.858;9.206;2024-03-23T12:19:34;97648.72;;;8.61;94.92
11314;BME280;5712;48.858;9.206;2024-03-23T12:22:02;97651.47;;;8.60;92.21
11314;BME280;5712;48.858;9.206;2024-03-23T12:24:29;97649.78;;;8.71;90.33
11314;BME280;5712;48.858;9.206;2024-03-23T12:26:59;97648.47;;;9.02;87.45
11314;BME280;5712;48.858;9.206;2024-03-23T12:29:26;97658.88;;;9.16;90.34
11314;BME280;5712;48.858;9.206;2024-03-23T12:31:54;97608.53;;;9.31;81.72
11314;BME280;5712;48.858;9.206;2024-03-23T12:34:19;97625.81;;;9.35;82.49
11314;BME280;5712;48.858;9.206;2024-03-23T12:36:46;97604.44;;;9.51;79.67
11314;BME280;5712;48.858;9.206;2024-03-23T12:39:11;97618.53;;;9.62;78.94
11314;BME280;5712;48.858;9.206;2024-03-23T12:41:38;97630.09;;;9.72;79.89
11314;BME280;5712;48.858;9.206;2024-03-23T12:44:03;97612.59;;;9.71;77.83
11314;BME280;5712;48.858;9.206;2024-03-23T12:46:30;97616.56;;;9.53;76.80
11314;BME280;5712;48.858;9.206;2024-03-23T12:48:57;97636.34;;;9.48;79.26
11314;BME280;5712;48.858;9.206;2024-03-23T12:51:24;97608.03;;;9.50;76.37
11314;BME280;5712;48.858;9.206;2024-03-23T12:53:50;97635.47;;;9.47;77.58
11314;BME280;5712;48.858;9.206;2024-03-23T12:56:16;97635.72;;;9.44;77.42
11314;BME280;5712;48.858;9.206;2024-03-23T12:58:42;97647.09;;;9.45;79.32
11314;BME280;5712;48.858;9.206;2024-03-23T13:01:09;97645.88;;;9.61;80.50
11314;BME280;5712;48.858;9.206;2024-03-23T13:03:34;97635.78;;;9.79;78.82
11314;BME280;5712;48.858;9.206;2024-03-23T13:06:02;97621.44;;;9.94;78.81
11314;BME280;5712;48.858;9.206;2024-03-23T13:08:32;97600.50;;;10.03;76.11
11314;BME280;5712;48.858;9.206;2024-03-23T13:10:59;97616.25;;;10.16;77.92
11314;BME280;5712;48.858;9.206;2024-03-23T13:13:24;97617.59;;;10.21;79.01
11314;BME280;5712;48.858;9.206;2024-03-23T13:15:51;97592.50;;;10.16;74.49
11314;BME280;5712;48.858;9.206;2024-03-23T13:18:16;97571.00;;;10.09;72.17
11314;BME280;5712;48.858;9.206;2024-03-23T13:20:43;97571.66;;;10.00;71.51
11314;BME280;5712;48.858;9.206;2024-03-23T13:23:10;97557.38;;;9.92;71.26
11314;BME280;5712;48.858;9.206;2024-03-23T13:25:37;97540.28;;;9.74;68.84
11314;BME280;5712;48.858;9.206;2024-03-23T13:28:03;97563.63;;;9.67;71.04
11314;BME280;5712;48.858;9.206;2024-03-23T13:30:30;97562.81;;;9.67;71.11
11314;BME280;5712;48.858;9.206;2024-03-23T13:32:56;97547.13;;;9.76;71.41
11314;BME280;5712;48.858;9.206;2024-03-23T13:35:22;97530.00;;;9.93;70.29
11314;BME280;5712;48.858;9.206;2024-03-23T13:37:48;97560.59;;;10.30;72.81
11314;BME280;5712;48.858;9.206;2024-03-23T13:40:16;97469.81;;;10.42;65.78
11314;BME280;5712;48.858;9.206;2024-03-23T13:42:41;97504.88;;;10.55;67.44
11314;BME280;5712;48.858;9.206;2024-03-23T13:45:08;97474.34;;;10.62;64.17
11314;BME280;5712;48.858;9.206;2024-03-23T13:47:37;97465.47;;;10.63;63.91
11314;BME280;5712;48.858;9.206;2024-03-23T13:50:03;97483.47;;;10.80;64.69
11314;BME280;5712;48.858;9.206;2024-03-23T13:52:30;97444.59;;;10.60;60.74
11314;BME280;5712;48.858;9.206;2024-03-23T13:54:56;97521.44;;;10.24;62.94
11314;BME280;5712;48.858;9.206;2024-03-23T13:57:24;97577.88;;;9.65;69.06
11314;BME280;5712;48.858;9.206;2024-03-23T13:59:51;97654.84;;;8.62;79.72
11314;BME280;5712;48.858;9.206;2024-03-23T14:02:17;97718.94;;;7.97;88.96